createdAt,value
2023-01-17T00:02:18.056Z,2.33
2023-01-17T00:05:03.434Z,2.88
2023-01-17T00:07:49.271Z,3.28
2023-01-17T00:10:17.287Z,2.20
2023-01-17T00:12:48.955Z,2.40
2023-01-17T00:15:16.628Z,2.25
2023-01-17T00:17:42.933Z,2.60
2023-01-17T00:20:32.496Z,3.63
2023-01-17T00:23:17.694Z,2.13
2023-01-17T00:26:10.515Z,2.70
2023-01-17T00:28:39.497Z,2.65
2023-01-17T00:31:07.857Z,3.85
2023-01-17T00:33:34.737Z,2.10
2023-01-17T00:36:01.478Z,4.50
2023-01-17T00:38:30.232Z,2.47
2023-01-17T00:41:05.886Z,2.42
2023-01-17T00:43:51.455Z,2.40
2023-01-17T00:46:36.902Z,2.70
2023-01-17T00:49:23.013Z,2.33
2023-01-17T00:52:08.402Z,2.07
2023-01-17T00:54:53.664Z,2.88
2023-01-17T00:57:39.037Z,2.72
2023-01-17T01:00:24.901Z,2.30
2023-01-17T01:03:09.734Z,2.65
2023-01-17T01:05:56.631Z,3.20
2023-01-17T01:08:44.291Z,2.50
2023-01-17T01:11:33.395Z,2.58
2023-01-17T01:14:20.069Z,2.47
2023-01-17T01:17:05.641Z,2.67
2023-01-17T01:19:50.635Z,2.13
2023-01-17T01:22:35.686Z,2.30
2023-01-17T01:25:21.024Z,3.13
2023-01-17T01:28:06.271Z,2.42
2023-01-17T01:30:51.560Z,2.00
2023-01-17T01:33:21.035Z,2.50
2023-01-17T01:35:50.402Z,2.45
2023-01-17T01:38:18.478Z,3.50
2023-01-17T01:40:48.018Z,3.22
2023-01-17T01:44:41.024Z,1.88
2023-01-17T01:47:13.835Z,1.95
2023-01-17T01:49:40.551Z,2.30
2023-01-17T01:52:10.124Z,2.75
2023-01-17T01:54:44.884Z,3.38
2023-01-17T01:57:16.958Z,1.98
2023-01-17T01:59:48.428Z,2.20
2023-01-17T02:02:15.632Z,2.40
2023-01-17T02:04:43.735Z,3.25
2023-01-17T02:07:21.271Z,2.35
2023-01-17T02:09:47.988Z,2.45
2023-01-17T02:12:14.540Z,2.40
2023-01-17T02:14:40.921Z,2.90
2023-01-17T02:17:41.427Z,1.85
2023-01-17T02:20:26.896Z,3.75
2023-01-17T02:23:34.667Z,2.28
2023-01-17T02:26:13.651Z,1.80
2023-01-17T02:28:46.533Z,3.53
2023-01-17T02:31:31.677Z,2.13
2023-01-17T02:34:14.833Z,1.90
2023-01-17T02:37:07.965Z,2.80
2023-01-17T02:39:47.347Z,3.00
2023-01-17T02:42:18.217Z,2.93
2023-01-17T02:44:45.069Z,2.10
2023-01-17T02:47:23.899Z,2.38
2023-01-17T02:49:53.776Z,2.30
2023-01-17T02:52:42.717Z,2.60
2023-01-17T02:55:44.470Z,4.07
2023-01-17T02:58:18.444Z,2.17
2023-01-17T03:01:03.387Z,2.97
2023-01-17T03:03:32.813Z,3.00
2023-01-17T03:06:24.505Z,2.42
2023-01-17T03:08:52.419Z,1.90
2023-01-17T03:11:19.147Z,3.25
2023-01-17T03:13:45.698Z,2.67
2023-01-17T03:16:18.088Z,2.28
2023-01-17T03:18:44.964Z,2.90
2023-01-17T03:21:11.709Z,2.20
2023-01-17T03:23:38.121Z,3.30
2023-01-17T03:26:04.687Z,3.25
2023-01-17T03:28:34.358Z,2.80
2023-01-17T03:31:00.918Z,3.42
2023-01-17T03:33:27.319Z,2.33
2023-01-17T03:35:54.712Z,3.50
2023-01-17T03:38:21.085Z,5.45
2023-01-17T03:40:47.698Z,3.83
2023-01-17T03:43:14.082Z,4.38
2023-01-17T03:45:40.751Z,3.60
2023-01-17T03:48:07.169Z,3.40
2023-01-17T03:50:33.676Z,5.50
2023-01-17T03:53:00.556Z,4.30
2023-01-17T03:55:27.467Z,5.40
2023-01-17T03:57:54.060Z,4.03
2023-01-17T04:00:20.974Z,4.68
2023-01-17T04:02:47.581Z,4.55
2023-01-17T04:05:14.243Z,4.63
2023-01-17T04:07:41.281Z,4.00
2023-01-17T04:10:08.436Z,4.40
2023-01-17T04:12:34.953Z,4.68
2023-01-17T04:15:01.433Z,3.85
2023-01-17T04:17:27.971Z,4.03
2023-01-17T04:19:54.598Z,3.78
2023-01-17T04:22:21.151Z,4.50
2023-01-17T04:24:47.700Z,3.70
2023-01-17T04:27:14.470Z,3.45
2023-01-17T04:29:41.164Z,3.75
2023-01-17T04:32:07.800Z,3.45
2023-01-17T04:34:34.240Z,3.57
2023-01-17T04:37:00.626Z,3.80
2023-01-17T04:39:27.016Z,3.60
2023-01-17T04:41:53.586Z,3.75
2023-01-17T04:44:21.175Z,4.93
2023-01-17T04:46:47.683Z,3.33
2023-01-17T04:49:14.224Z,3.25
2023-01-17T04:51:40.757Z,3.70
2023-01-17T04:54:07.347Z,4.63
2023-01-17T04:56:33.770Z,3.40
2023-01-17T04:59:00.279Z,3.37
2023-01-17T05:01:27.207Z,3.35
2023-01-17T05:03:54.968Z,4.35
2023-01-17T05:06:21.533Z,4.82
2023-01-17T05:08:47.907Z,4.53
2023-01-17T05:11:14.569Z,3.80
2023-01-17T05:13:40.959Z,4.82
2023-01-17T05:16:07.915Z,3.42
2023-01-17T05:18:34.575Z,3.08
2023-01-17T05:21:05.066Z,4.25
2023-01-17T05:23:33.039Z,3.50
2023-01-17T05:25:59.647Z,4.55
2023-01-17T05:28:26.214Z,4.32
2023-01-17T05:30:52.847Z,3.50
2023-01-17T05:33:19.492Z,4.18
2023-01-17T05:35:46.101Z,9.20
2023-01-17T05:38:12.716Z,6.28
2023-01-17T05:40:39.328Z,5.82
2023-01-17T05:43:05.956Z,4.53
2023-01-17T05:45:33.752Z,4.65
2023-01-17T05:48:01.096Z,4.63
2023-01-17T05:50:34.092Z,3.65
2023-01-17T05:53:06.466Z,4.82
2023-01-17T05:55:34.304Z,3.80
2023-01-17T05:58:01.243Z,5.30
2023-01-17T06:00:28.089Z,5.63
2023-01-17T06:02:56.120Z,3.78
2023-01-17T06:05:23.636Z,3.40
2023-01-17T06:07:50.422Z,4.65
2023-01-17T06:10:18.471Z,6.13
2023-01-17T06:12:45.889Z,8.47
2023-01-17T06:15:14.080Z,9.50
2023-01-17T06:17:41.396Z,10.77
2023-01-17T06:20:09.973Z,9.75
2023-01-17T06:22:36.805Z,5.07
2023-01-17T06:25:03.559Z,4.67
2023-01-17T06:27:30.057Z,5.20
2023-01-17T06:29:56.592Z,6.82
2023-01-17T06:32:23.108Z,5.13
2023-01-17T06:34:49.669Z,7.65
2023-01-17T06:37:16.091Z,17.70
2023-01-17T06:39:42.967Z,10.40
2023-01-17T06:42:09.345Z,7.53
2023-01-17T06:44:36.024Z,9.60
2023-01-17T06:47:02.586Z,6.97
2023-01-17T06:49:29.044Z,6.13
2023-01-17T06:51:55.417Z,5.47
2023-01-17T06:54:22.052Z,4.70
2023-01-17T06:56:48.489Z,5.15
2023-01-17T06:59:14.987Z,3.85
2023-01-17T07:01:41.463Z,5.53
2023-01-17T07:04:08.108Z,4.38
2023-01-17T07:06:36.631Z,4.10
2023-01-17T07:09:04.555Z,3.80
2023-01-17T07:11:31.897Z,3.97
2023-01-17T07:13:58.596Z,5.53
2023-01-17T07:16:25.220Z,3.85
2023-01-17T07:18:52.145Z,3.50
2023-01-17T07:21:18.787Z,4.20
2023-01-17T07:23:45.472Z,4.20
2023-01-17T07:26:11.981Z,3.97
2023-01-17T07:28:38.363Z,4.28
2023-01-17T07:31:08.466Z,4.20
2023-01-17T07:33:35.082Z,5.82
2023-01-17T07:36:09.389Z,4.45
2023-01-17T07:38:35.866Z,4.90
2023-01-17T07:41:02.900Z,6.78
2023-01-17T07:43:29.591Z,4.47
2023-01-17T07:45:56.487Z,6.13
2023-01-17T07:48:24.852Z,6.65
2023-01-17T07:50:53.308Z,7.23
2023-01-17T07:53:20.196Z,7.10
2023-01-17T07:55:46.776Z,7.35
2023-01-17T07:58:14.883Z,7.85
2023-01-17T08:00:44.132Z,7.38
2023-01-17T08:03:16.182Z,7.40
2023-01-17T08:05:44.376Z,7.43
2023-01-17T08:08:10.875Z,5.45
2023-01-17T08:10:37.421Z,4.93
2023-01-17T08:13:03.863Z,5.18
2023-01-17T08:15:30.478Z,13.67
2023-01-17T08:17:58.200Z,21.48
2023-01-17T08:20:27.677Z,30.90
2023-01-17T08:22:56.069Z,26.67
2023-01-17T08:25:24.753Z,29.30
2023-01-17T08:27:52.268Z,21.00
2023-01-17T08:30:19.096Z,16.33
2023-01-17T08:32:45.636Z,14.57
2023-01-17T08:35:12.036Z,11.75
2023-01-17T08:37:39.229Z,10.50
2023-01-17T08:40:07.157Z,7.43
2023-01-17T08:42:39.634Z,7.32
2023-01-17T08:45:07.731Z,7.28
2023-01-17T08:47:34.996Z,6.55
2023-01-17T08:50:01.876Z,8.07
2023-01-17T08:52:28.984Z,7.33
2023-01-17T08:54:55.467Z,6.45
2023-01-17T08:57:22.343Z,6.78
2023-01-17T08:59:51.332Z,4.80
2023-01-17T09:02:19.663Z,3.47
2023-01-17T09:04:47.976Z,3.93
2023-01-17T09:07:15.773Z,4.93
2023-01-17T09:09:42.530Z,4.60
2023-01-17T09:12:08.967Z,3.45
2023-01-17T09:14:36.027Z,3.80
2023-01-17T09:17:02.617Z,4.00
2023-01-17T09:19:29.557Z,3.75
2023-01-17T09:21:55.978Z,4.10
2023-01-17T09:24:22.440Z,3.60
2023-01-17T09:26:48.985Z,4.00
2023-01-17T09:29:18.125Z,4.30
2023-01-17T09:31:47.357Z,4.47
2023-01-17T09:34:14.479Z,3.85
2023-01-17T09:36:42.846Z,4.10
2023-01-17T09:39:11.207Z,4.35
2023-01-17T09:41:47.342Z,4.60
2023-01-17T09:44:46.077Z,5.47
2023-01-17T09:47:19.927Z,4.15
2023-01-17T09:49:47.410Z,3.65
2023-01-17T09:52:17.997Z,4.13
2023-01-17T09:54:47.256Z,4.90
2023-01-17T09:57:46.875Z,4.88
2023-01-17T10:00:38.329Z,4.88
2023-01-17T10:03:30.359Z,4.05
2023-01-17T10:06:15.527Z,6.30
2023-01-17T10:09:30.306Z,4.20
2023-01-17T10:12:17.043Z,3.80
2023-01-17T10:14:56.554Z,4.65
2023-01-17T10:17:43.718Z,4.47
2023-01-17T10:20:41.175Z,4.72
2023-01-17T10:23:22.981Z,4.07
2023-01-17T10:25:52.294Z,4.30
2023-01-17T10:28:29.961Z,4.90
2023-01-17T10:31:05.560Z,4.10
2023-01-17T10:33:44.379Z,9.15
2023-01-17T10:36:15.602Z,4.83
2023-01-17T10:38:47.142Z,3.83
2023-01-17T10:41:25.907Z,4.40
2023-01-17T10:44:11.636Z,4.00
2023-01-17T10:46:48.105Z,4.70
2023-01-17T10:49:21.466Z,3.73
2023-01-17T10:52:13.029Z,3.50
2023-01-17T10:55:05.086Z,3.60
2023-01-17T10:57:40.971Z,5.57
2023-01-17T11:00:40.050Z,3.42
2023-01-17T11:03:07.077Z,3.97
2023-01-17T11:05:34.290Z,4.53
2023-01-17T11:08:03.568Z,4.32
2023-01-17T11:10:57.352Z,4.45
2023-01-17T11:13:34.432Z,4.10
2023-01-17T11:16:04.161Z,5.00
2023-01-17T11:18:35.236Z,4.75
2023-01-17T11:21:24.250Z,4.15
2023-01-17T11:23:56.926Z,4.82
2023-01-17T11:26:33.053Z,3.78
2023-01-17T11:29:38.965Z,4.23
2023-01-17T11:32:17.806Z,5.90
2023-01-17T11:34:44.407Z,5.65
2023-01-17T11:37:20.694Z,3.58
2023-01-17T11:39:50.197Z,3.05
2023-01-17T11:42:33.469Z,3.97
2023-01-17T11:45:23.661Z,4.45
2023-01-17T11:48:05.525Z,3.70
2023-01-17T11:50:33.017Z,3.70
2023-01-17T11:53:16.680Z,3.80
2023-01-17T11:56:12.103Z,3.53
2023-01-17T11:58:41.716Z,3.60
2023-01-17T12:01:27.295Z,3.50
2023-01-17T12:04:12.018Z,4.55
2023-01-17T12:06:57.883Z,3.85
2023-01-17T12:09:38.663Z,3.83
2023-01-17T12:12:27.458Z,3.90
2023-01-17T12:15:11.185Z,3.60
2023-01-17T12:18:08.978Z,5.30
2023-01-17T12:20:57.638Z,6.03
2023-01-17T12:23:50.702Z,4.40
2023-01-17T12:26:30.752Z,3.38
2023-01-17T12:29:11.857Z,3.08
2023-01-17T12:31:52.781Z,2.58
2023-01-17T12:34:30.517Z,4.20
2023-01-17T12:37:04.228Z,3.93
2023-01-17T12:39:40.619Z,3.53
2023-01-17T12:42:14.371Z,3.10
2023-01-17T12:44:52.883Z,3.60
2023-01-17T12:47:21.484Z,3.55
2023-01-17T12:50:06.809Z,3.13
2023-01-17T12:53:10.592Z,2.83
2023-01-17T12:55:58.924Z,3.25
2023-01-17T12:58:29.570Z,2.90
2023-01-17T13:01:04.513Z,2.92
2023-01-17T13:03:55.034Z,3.47
2023-01-17T13:06:35.914Z,3.45
2023-01-17T13:09:03.680Z,3.10
2023-01-17T13:11:44.365Z,3.35
2023-01-17T13:14:10.924Z,3.90
2023-01-17T13:17:05.117Z,4.97
2023-01-17T13:19:50.135Z,4.93
2023-01-17T13:22:21.874Z,4.30
2023-01-17T13:25:26.949Z,3.97
2023-01-17T13:28:17.164Z,3.97
2023-01-17T13:31:03.414Z,3.97
2023-01-17T13:33:46.420Z,4.40
2023-01-17T13:36:31.301Z,3.47
2023-01-17T13:39:12.931Z,3.63
2023-01-17T13:42:08.776Z,2.67
2023-01-17T13:44:36.502Z,3.60
2023-01-17T13:47:08.107Z,5.22
2023-01-17T13:49:36.279Z,5.35
2023-01-17T13:52:12.367Z,4.57
2023-01-17T13:54:52.231Z,4.13
2023-01-17T13:57:33.004Z,4.17
2023-01-17T14:00:23.202Z,5.22
2023-01-17T14:02:51.449Z,4.30
2023-01-17T14:05:21.363Z,3.90
2023-01-17T14:07:52.213Z,4.15
2023-01-17T14:10:41.033Z,5.17
2023-01-17T14:13:39.677Z,4.85
2023-01-17T14:16:21.528Z,3.85
2023-01-17T14:18:48.990Z,4.13
2023-01-17T14:21:24.963Z,4.65
2023-01-17T14:24:05.695Z,4.57
2023-01-17T14:26:36.847Z,3.95
2023-01-17T14:30:00.663Z,6.60
2023-01-17T14:32:32.275Z,3.38
2023-01-17T14:34:59.629Z,4.18
2023-01-17T14:37:44.333Z,4.13
2023-01-17T14:40:19.663Z,4.32
2023-01-17T14:42:48.980Z,4.30
2023-01-17T14:45:24.024Z,3.85
2023-01-17T14:47:51.659Z,4.43
2023-01-17T14:50:18.317Z,4.97
2023-01-17T14:52:47.712Z,5.07
2023-01-17T14:55:20.631Z,4.95
2023-01-17T14:57:55.899Z,5.05
2023-01-17T15:00:25.829Z,4.28
2023-01-17T15:02:53.905Z,4.47
2023-01-17T15:05:25.027Z,4.63
2023-01-17T15:07:54.755Z,6.28
2023-01-17T15:10:28.585Z,4.85
2023-01-17T15:12:57.524Z,5.32
2023-01-17T15:15:35.237Z,3.93
2023-01-17T15:18:29.556Z,4.78
2023-01-17T15:21:02.637Z,6.65
2023-01-17T15:23:37.574Z,5.97
2023-01-17T15:26:06.499Z,5.95
2023-01-17T15:28:34.658Z,6.90
2023-01-17T15:31:11.735Z,9.38
2023-01-17T15:33:42.483Z,7.13
2023-01-17T15:36:11.285Z,6.22
2023-01-17T15:38:46.932Z,5.13
2023-01-17T15:41:17.088Z,6.97
2023-01-17T15:43:45.129Z,9.05
2023-01-17T15:46:28.712Z,12.18
2023-01-17T15:49:07.687Z,8.77
2023-01-17T15:51:38.767Z,7.70
2023-01-17T15:54:52.840Z,11.53
2023-01-17T15:57:38.161Z,11.02
2023-01-17T16:00:21.521Z,11.77
2023-01-17T16:02:59.753Z,10.73
2023-01-17T16:05:31.135Z,12.43
2023-01-17T16:07:58.491Z,9.60
2023-01-17T16:10:31.817Z,11.10
2023-01-17T16:12:59.852Z,10.95
2023-01-17T16:15:27.389Z,14.55
2023-01-17T16:18:24.009Z,17.63
2023-01-17T16:20:56.963Z,13.70
2023-01-17T16:23:23.526Z,11.63
2023-01-17T16:25:50.190Z,10.65
2023-01-17T16:28:16.629Z,9.90
2023-01-17T16:30:44.586Z,8.75
2023-01-17T16:33:14.555Z,12.53
2023-01-17T16:35:42.901Z,13.15
2023-01-17T16:38:12.056Z,13.07
2023-01-17T16:40:41.247Z,12.88
2023-01-17T16:43:07.789Z,13.07
2023-01-17T16:45:45.084Z,8.93
2023-01-17T16:48:12.679Z,9.43
2023-01-17T16:50:48.349Z,8.20
2023-01-17T16:53:24.510Z,10.80
2023-01-17T16:55:53.052Z,8.95
2023-01-17T16:58:20.516Z,10.63
2023-01-17T17:00:47.595Z,9.80
2023-01-17T17:03:18.692Z,6.43
2023-01-17T17:05:47.284Z,7.10
2023-01-17T17:08:15.249Z,10.27
2023-01-17T17:10:41.631Z,10.03
2023-01-17T17:13:08.084Z,9.70
2023-01-17T17:15:34.696Z,10.10
2023-01-17T17:18:01.326Z,11.85
2023-01-17T17:20:27.808Z,9.25
2023-01-17T17:22:54.316Z,7.53
2023-01-17T17:25:20.956Z,7.40
2023-01-17T17:27:47.493Z,8.20
2023-01-17T17:30:14.134Z,11.45
2023-01-17T17:32:40.701Z,9.77
2023-01-17T17:35:07.375Z,8.93
2023-01-17T17:37:34.358Z,9.20
2023-01-17T17:40:00.938Z,9.35
2023-01-17T17:42:27.537Z,12.07
2023-01-17T17:44:54.269Z,9.32
2023-01-17T17:47:20.754Z,21.40
2023-01-17T17:49:47.409Z,31.00
2023-01-17T17:52:13.988Z,24.13
2023-01-17T17:54:41.156Z,21.77
2023-01-17T17:57:07.833Z,14.57
2023-01-17T17:59:34.565Z,12.00
2023-01-17T18:02:01.064Z,12.60
2023-01-17T18:04:27.683Z,12.68
2023-01-17T18:06:58.002Z,12.68
2023-01-17T18:09:24.525Z,11.48
2023-01-17T18:11:52.676Z,10.13
2023-01-17T18:14:21.291Z,9.70
2023-01-17T18:16:48.326Z,9.93
2023-01-17T18:19:20.472Z,9.88
2023-01-17T18:21:48.570Z,9.48
2023-01-17T18:24:16.822Z,10.20
2023-01-17T18:26:48.676Z,9.85
2023-01-17T18:29:16.614Z,9.40
2023-01-17T18:31:44.480Z,10.00
2023-01-17T18:34:14.291Z,10.63
2023-01-17T18:36:41.166Z,12.57
2023-01-17T18:39:13.955Z,14.13
2023-01-17T18:41:41.036Z,12.60
2023-01-17T18:44:08.529Z,10.98
2023-01-17T18:46:35.891Z,13.75
2023-01-17T18:49:03.147Z,13.50
2023-01-17T18:51:34.635Z,15.95
2023-01-17T18:54:05.843Z,15.32
2023-01-17T18:56:36.458Z,13.85
2023-01-17T18:59:08.927Z,14.30
2023-01-17T19:01:36.445Z,15.40
2023-01-17T19:04:05.923Z,17.10
2023-01-17T19:06:41.578Z,17.55
2023-01-17T19:09:08.965Z,15.00
2023-01-17T19:11:36.755Z,15.00
2023-01-17T19:14:03.913Z,16.83
2023-01-17T19:16:32.589Z,17.40
2023-01-17T19:19:03.805Z,17.73
2023-01-17T19:21:31.580Z,17.55
2023-01-17T19:23:59.074Z,17.33
2023-01-17T19:26:27.491Z,16.50
2023-01-17T19:28:56.343Z,13.07
2023-01-17T19:31:36.523Z,18.63
2023-01-17T19:34:03.206Z,12.60
2023-01-17T19:36:34.467Z,12.43
2023-01-17T19:39:06.084Z,13.13
2023-01-17T19:41:35.832Z,8.90
2023-01-17T19:44:06.818Z,8.75
2023-01-17T19:46:34.366Z,10.88
2023-01-17T19:49:01.566Z,10.88
2023-01-17T19:51:28.909Z,10.37
2023-01-17T19:53:56.020Z,11.75
2023-01-17T19:56:25.340Z,11.50
2023-01-17T19:58:52.454Z,11.05
2023-01-17T20:01:23.319Z,12.90
2023-01-17T20:03:51.256Z,12.20
2023-01-17T20:06:20.564Z,10.05
2023-01-17T20:08:46.921Z,10.80
2023-01-17T20:11:17.596Z,9.60
2023-01-17T20:13:45.249Z,9.77
2023-01-17T20:16:17.217Z,9.60
2023-01-17T20:18:44.078Z,15.23
2023-01-17T20:21:13.968Z,11.55
2023-01-17T20:23:43.133Z,12.43
2023-01-17T20:26:11.345Z,11.05
2023-01-17T20:28:40.160Z,13.43
2023-01-17T20:31:14.989Z,13.48
2023-01-17T20:33:43.611Z,15.65
2023-01-17T20:36:14.960Z,13.13
2023-01-17T20:38:46.075Z,11.52
2023-01-17T20:41:14.133Z,18.60
2023-01-17T20:43:42.606Z,18.10
2023-01-17T20:46:10.397Z,15.23
2023-01-17T20:48:39.224Z,11.68
2023-01-17T20:51:10.694Z,11.65
2023-01-17T20:53:38.782Z,13.07
2023-01-17T20:56:06.344Z,14.43
2023-01-17T20:58:34.208Z,17.02
2023-01-17T21:01:01.465Z,13.55
2023-01-17T21:03:29.368Z,13.38
2023-01-17T21:06:03.832Z,13.93
2023-01-17T21:08:31.829Z,13.20
2023-01-17T21:10:58.665Z,13.70
2023-01-17T21:13:26.109Z,12.35
2023-01-17T21:15:53.106Z,16.13
2023-01-17T21:18:22.054Z,19.67
2023-01-17T21:20:48.882Z,20.45
2023-01-17T21:23:18.636Z,20.55
2023-01-17T21:25:58.140Z,21.95
2023-01-17T21:28:27.291Z,19.75
2023-01-17T21:30:54.839Z,16.43
2023-01-17T21:33:23.104Z,17.85
2023-01-17T21:35:49.819Z,17.58
2023-01-17T21:38:16.272Z,17.63
2023-01-17T21:40:44.150Z,19.05
2023-01-17T21:43:11.708Z,15.83
2023-01-17T21:45:39.596Z,20.25
2023-01-17T21:48:07.841Z,20.45
2023-01-17T21:50:34.282Z,16.92
2023-01-17T21:53:00.874Z,19.17
2023-01-17T21:55:50.342Z,15.97
2023-01-17T21:58:36.484Z,19.80
2023-01-17T22:01:16.161Z,21.52
2023-01-17T22:03:48.917Z,17.10
2023-01-17T22:06:15.927Z,15.98
2023-01-17T22:08:43.008Z,16.77
2023-01-17T22:11:14.984Z,18.02
2023-01-17T22:13:43.810Z,14.15
2023-01-17T22:16:17.903Z,16.70
2023-01-17T22:18:46.020Z,13.98
2023-01-17T22:21:16.900Z,16.57
2023-01-17T22:23:48.875Z,14.68
2023-01-17T22:26:16.031Z,13.82
2023-01-17T22:28:43.186Z,13.18
2023-01-17T22:31:13.823Z,13.45
2023-01-17T22:33:42.385Z,13.93
2023-01-17T22:36:10.211Z,13.27
2023-01-17T22:38:36.784Z,14.93
2023-01-17T22:41:13.228Z,13.52
2023-01-17T22:43:42.797Z,15.30
2023-01-17T22:46:12.176Z,11.20
2023-01-17T22:48:41.137Z,12.57
2023-01-17T22:51:10.583Z,14.40
2023-01-17T22:53:41.830Z,12.90
2023-01-17T22:56:15.865Z,13.20
2023-01-17T22:58:44.726Z,15.07
2023-01-17T23:01:17.362Z,11.80
2023-01-17T23:03:47.758Z,13.98
2023-01-17T23:06:16.178Z,15.60
2023-01-17T23:08:45.752Z,23.27
2023-01-17T23:11:39.823Z,54.63
2023-01-17T23:14:07.491Z,25.92
2023-01-17T23:16:52.633Z,20.10
2023-01-17T23:19:25.215Z,17.52
2023-01-17T23:22:18.543Z,20.73
2023-01-17T23:25:03.931Z,21.67
2023-01-17T23:27:58.027Z,23.67
2023-01-17T23:30:25.909Z,23.45
2023-01-17T23:32:55.788Z,25.70
2023-01-17T23:35:26.353Z,23.02
2023-01-17T23:38:12.030Z,25.67
2023-01-17T23:40:40.324Z,21.40
2023-01-17T23:43:25.131Z,24.00
2023-01-17T23:45:53.226Z,20.73
2023-01-17T23:48:20.592Z,21.58
2023-01-17T23:50:48.289Z,24.03
2023-01-17T23:53:23.756Z,25.85
2023-01-17T23:55:53.129Z,26.58
2023-01-17T23:58:21.574Z,25.08
